sensor_id;sensor_type;location;lat;lon;timestamp;temperature;humidity
22680;DHT22;11507;44.858;10.374;2023-08-06T00:01:55;17.50;99.90
22680;DHT22;11507;44.858;10.374;2023-08-06T00:04:21;17.40;99.90
22680;DHT22;11507;44.858;10.374;2023-08-06T00:06:48;17.30;99.90
22680;DHT22;11507;44.858;10.374;2023-08-06T00:09:14;17.30;99.90
22680;DHT22;11507;44.858;10.374;2023-08-06T00:11:40;17.30;99.90
22680;DHT22;11507;44.858;10.374;2023-08-06T00:14:09;17.30;99.90
22680;DHT22;11507;44.858;10.374;2023-08-06T00:16:36;17.20;99.90
22680;DHT22;11507;44.858;10.374;2023-08-06T00:19:01;17.20;99.90
22680;DHT22;11507;44.858;10.374;2023-08-06T00:21:28;17.10;99.90
22680;DHT22;11507;44.858;10.374;2023-08-06T00:23:53;17.10;99.90
22680;DHT22;11507;44.858;10.374;2023-08-06T00:26:19;17.00;99.90
22680;DHT22;11507;44.858;10.374;2023-08-06T00:28:45;17.00;99.90
22680;DHT22;11507;44.858;10.374;2023-08-06T00:31:11;16.90;99.90
22680;DHT22;11507;44.858;10.374;2023-08-06T00:33:37;16.80;99.90
22680;DHT22;11507;44.858;10.374;2023-08-06T00:36:03;16.80;99.90
22680;DHT22;11507;44.858;10.374;2023-08-06T00:38:29;16.70;99.90
22680;DHT22;11507;44.858;10.374;2023-08-06T00:40:54;16.60;99.90
22680;DHT22;11507;44.858;10.374;2023-08-06T00:43:20;16.60;99.90
22680;DHT22;11507;44.858;10.374;2023-08-06T00:45:47;16.60;99.90
22680;DHT22;11507;44.858;10.374;2023-08-06T00:48:13;16.50;99.90
22680;DHT22;11507;44.858;10.374;2023-08-06T00:50:39;16.50;99.90
22680;DHT22;11507;44.858;10.374;2023-08-06T00:53:05;16.40;99.90
22680;DHT22;11507;44.858;10.374;2023-08-06T00:55:31;16.40;99.90
22680;DHT22;11507;44.858;10.374;2023-08-06T00:57:56;16.40;99.90
22680;DHT22;11507;44.858;10.374;2023-08-06T01:00:24;16.40;99.90
22680;DHT22;11507;44.858;10.374;2023-08-06T01:02:50;16.30;99.90
22680;DHT22;11507;44.858;10.374;2023-08-06T01:05:17;16.40;99.90
22680;DHT22;11507;44.858;10.374;2023-08-06T01:08:33;16.40;99.90
22680;DHT22;11507;44.858;10.374;2023-08-06T01:13:46;16.40;99.90
22680;DHT22;11507;44.858;10.374;2023-08-06T01:16:18;16.50;99.90
22680;DHT22;11507;44.858;10.374;2023-08-06T01:18:48;16.50;99.90
22680;DHT22;11507;44.858;10.374;2023-08-06T01:21:15;16.60;99.90
22680;DHT22;11507;44.858;10.374;2023-08-06T01:23:42;16.70;99.90
22680;DHT22;11507;44.858;10.374;2023-08-06T01:29:14;16.80;99.90
22680;DHT22;11507;44.858;10.374;2023-08-06T01:31:43;16.90;99.90
22680;DHT22;11507;44.858;10.374;2023-08-06T01:34:16;16.90;99.90
22680;DHT22;11507;44.858;10.374;2023-08-06T01:36:43;16.90;99.90
22680;DHT22;11507;44.858;10.374;2023-08-06T01:39:09;17.00;99.90
22680;DHT22;11507;44.858;10.374;2023-08-06T01:41:35;17.00;99.90
22680;DHT22;11507;44.858;10.374;2023-08-06T01:44:00;17.00;99.90
22680;DHT22;11507;44.858;10.374;2023-08-06T01:46:27;17.00;99.90
22680;DHT22;11507;44.858;10.374;2023-08-06T01:48:52;17.00;99.90
22680;DHT22;11507;44.858;10.374;2023-08-06T01:51:19;17.00;99.90
22680;DHT22;11507;44.858;10.374;2023-08-06T01:53:44;17.00;99.90
22680;DHT22;11507;44.858;10.374;2023-08-06T01:56:11;17.10;99.90
22680;DHT22;11507;44.858;10.374;2023-08-06T01:58:36;17.10;99.90
22680;DHT22;11507;44.858;10.374;2023-08-06T02:01:02;17.10;99.90
22680;DHT22;11507;44.858;10.374;2023-08-06T02:03:28;17.20;99.90
22680;DHT22;11507;44.858;10.374;2023-08-06T02:05:54;17.20;99.90
22680;DHT22;11507;44.858;10.374;2023-08-06T02:08:20;17.20;99.90
22680;DHT22;11507;44.858;10.374;2023-08-06T02:10:46;17.30;99.90
22680;DHT22;11507;44.858;10.374;2023-08-06T02:13:12;17.30;99.90
22680;DHT22;11507;44.858;10.374;2023-08-06T02:15:44;17.30;99.90
22680;DHT22;11507;44.858;10.374;2023-08-06T02:18:15;17.30;99.90
22680;DHT22;11507;44.858;10.374;2023-08-06T02:20:42;17.40;99.90
22680;DHT22;11507;44.858;10.374;2023-08-06T02:23:08;17.40;99.90
22680;DHT22;11507;44.858;10.374;2023-08-06T02:25:34;17.40;99.90
22680;DHT22;11507;44.858;10.374;2023-08-06T02:28:00;17.40;99.90
22680;DHT22;11507;44.858;10.374;2023-08-06T02:30:26;17.40;99.90
22680;DHT22;11507;44.858;10.374;2023-08-06T02:32:52;17.40;99.90
22680;DHT22;11507;44.858;10.374;2023-08-06T02:35:18;17.40;99.90
22680;DHT22;11507;44.858;10.374;2023-08-06T02:37:44;17.50;99.90
22680;DHT22;11507;44.858;10.374;2023-08-06T02:40:10;17.50;99.90
22680;DHT22;11507;44.858;10.374;2023-08-06T02:42:36;17.50;99.90
22680;DHT22;11507;44.858;10.374;2023-08-06T02:45:03;17.40;99.90
22680;DHT22;11507;44.858;10.374;2023-08-06T02:47:29;17.40;99.90
22680;DHT22;11507;44.858;10.374;2023-08-06T02:49:54;17.40;99.90
22680;DHT22;11507;44.858;10.374;2023-08-06T02:52:20;17.40;99.90
22680;DHT22;11507;44.858;10.374;2023-08-06T02:54:46;17.30;99.90
22680;DHT22;11507;44.858;10.374;2023-08-06T02:57:14;17.30;99.90
22680;DHT22;11507;44.858;10.374;2023-08-06T02:59:39;17.20;99.90
22680;DHT22;11507;44.858;10.374;2023-08-06T03:02:13;17.20;99.90
22680;DHT22;11507;44.858;10.374;2023-08-06T03:04:49;17.10;99.90
22680;DHT22;11507;44.858;10.374;2023-08-06T03:07:17;17.10;99.90
22680;DHT22;11507;44.858;10.374;2023-08-06T03:09:52;16.90;99.90
22680;DHT22;11507;44.858;10.374;2023-08-06T03:12:19;16.90;99.90
22680;DHT22;11507;44.858;10.374;2023-08-06T03:14:47;16.80;99.90
22680;DHT22;11507;44.858;10.374;2023-08-06T03:17:12;16.80;99.90
22680;DHT22;11507;44.858;10.374;2023-08-06T03:19:40;16.80;99.90
22680;DHT22;11507;44.858;10.374;2023-08-06T03:22:06;16.80;99.90
22680;DHT22;11507;44.858;10.374;2023-08-06T03:24:33;16.80;99.90
22680;DHT22;11507;44.858;10.374;2023-08-06T03:26:59;16.80;99.90
22680;DHT22;11507;44.858;10.374;2023-08-06T03:29:25;16.80;99.90
22680;DHT22;11507;44.858;10.374;2023-08-06T03:31:52;16.80;99.90
22680;DHT22;11507;44.858;10.374;2023-08-06T03:34:19;16.80;99.90
22680;DHT22;11507;44.858;10.374;2023-08-06T03:36:46;16.80;99.90
22680;DHT22;11507;44.858;10.374;2023-08-06T03:39:12;16.90;99.90
22680;DHT22;11507;44.858;10.374;2023-08-06T03:41:40;16.90;99.90
22680;DHT22;11507;44.858;10.374;2023-08-06T03:44:06;16.90;99.90
22680;DHT22;11507;44.858;10.374;2023-08-06T03:46:32;16.90;99.90
22680;DHT22;11507;44.858;10.374;2023-08-06T03:49:01;16.80;99.90
22680;DHT22;11507;44.858;10.374;2023-08-06T03:51:26;16.80;99.90
22680;DHT22;11507;44.858;10.374;2023-08-06T03:53:53;16.80;99.90
22680;DHT22;11507;44.858;10.374;2023-08-06T03:56:19;16.70;99.90
22680;DHT22;11507;44.858;10.374;2023-08-06T03:58:45;16.70;99.90
22680;DHT22;11507;44.858;10.374;2023-08-06T04:01:11;16.70;99.90
22680;DHT22;11507;44.858;10.374;2023-08-06T04:03:41;16.60;99.90
22680;DHT22;11507;44.858;10.374;2023-08-06T04:06:07;16.60;99.90
22680;DHT22;11507;44.858;10.374;2023-08-06T04:08:33;16.60;99.90
22680;DHT22;11507;44.858;10.374;2023-08-06T04:10:59;16.60;99.90
22680;DHT22;11507;44.858;10.374;2023-08-06T04:13:25;16.60;99.90
22680;DHT22;11507;44.858;10.374;2023-08-06T04:15:50;16.70;99.90
22680;DHT22;11507;44.858;10.374;2023-08-06T04:18:16;16.70;99.90
22680;DHT22;11507;44.858;10.374;2023-08-06T04:20:43;16.60;99.90
22680;DHT22;11507;44.858;10.374;2023-08-06T04:23:10;16.60;99.90
22680;DHT22;11507;44.858;10.374;2023-08-06T04:25:36;16.50;99.90
22680;DHT22;11507;44.858;10.374;2023-08-06T04:28:02;16.50;99.90
22680;DHT22;11507;44.858;10.374;2023-08-06T04:30:29;16.50;99.90
22680;DHT22;11507;44.858;10.374;2023-08-06T04:32:57;16.50;99.90
22680;DHT22;11507;44.858;10.374;2023-08-06T04:35:24;16.60;99.90
22680;DHT22;11507;44.858;10.374;2023-08-06T04:37:50;16.60;99.90
22680;DHT22;11507;44.858;10.374;2023-08-06T04:40:17;16.60;99.90
22680;DHT22;11507;44.858;10.374;2023-08-06T04:42:43;16.60;99.90
22680;DHT22;11507;44.858;10.374;2023-08-06T04:45:09;16.60;99.90
22680;DHT22;11507;44.858;10.374;2023-08-06T04:47:35;16.70;99.90
22680;DHT22;11507;44.858;10.374;2023-08-06T04:50:01;16.70;99.90
22680;DHT22;11507;44.858;10.374;2023-08-06T04:52:26;16.70;99.90
22680;DHT22;11507;44.858;10.374;2023-08-06T04:54:54;16.80;99.90
22680;DHT22;11507;44.858;10.374;2023-08-06T04:57:20;16.90;99.90
22680;DHT22;11507;44.858;10.374;2023-08-06T04:59:47;16.90;99.90
22680;DHT22;11507;44.858;10.374;2023-08-06T05:02:13;17.00;99.90
22680;DHT22;11507;44.858;10.374;2023-08-06T05:04:38;16.90;99.90
22680;DHT22;11507;44.858;10.374;2023-08-06T05:07:05;17.00;99.90
22680;DHT22;11507;44.858;10.374;2023-08-06T05:09:32;17.10;99.90
22680;DHT22;11507;44.858;10.374;2023-08-06T05:12:00;17.20;99.90
22680;DHT22;11507;44.858;10.374;2023-08-06T05:14:26;17.30;99.90
22680;DHT22;11507;44.858;10.374;2023-08-06T05:16:51;17.40;99.90
22680;DHT22;11507;44.858;10.374;2023-08-06T05:19:17;17.50;99.90
22680;DHT22;11507;44.858;10.374;2023-08-06T05:21:44;17.60;99.90
22680;DHT22;11507;44.858;10.374;2023-08-06T05:24:10;17.70;99.90
22680;DHT22;11507;44.858;10.374;2023-08-06T05:26:36;17.70;99.90
22680;DHT22;11507;44.858;10.374;2023-08-06T05:29:02;17.80;99.90
22680;DHT22;11507;44.858;10.374;2023-08-06T05:31:27;17.80;99.90
22680;DHT22;11507;44.858;10.374;2023-08-06T05:33:54;17.90;99.90
22680;DHT22;11507;44.858;10.374;2023-08-06T05:36:23;17.90;99.90
22680;DHT22;11507;44.858;10.374;2023-08-06T05:38:49;18.00;99.90
22680;DHT22;11507;44.858;10.374;2023-08-06T05:41:14;18.00;99.90
22680;DHT22;11507;44.858;10.374;2023-08-06T05:43:40;18.10;99.90
22680;DHT22;11507;44.858;10.374;2023-08-06T05:46:14;18.20;99.90
22680;DHT22;11507;44.858;10.374;2023-08-06T05:48:41;18.30;99.90
22680;DHT22;11507;44.858;10.374;2023-08-06T05:51:07;18.40;99.90
22680;DHT22;11507;44.858;10.374;2023-08-06T05:53:33;18.40;99.90
22680;DHT22;11507;44.858;10.374;2023-08-06T05:55:59;18.50;99.90
22680;DHT22;11507;44.858;10.374;2023-08-06T05:58:25;18.70;99.90
22680;DHT22;11507;44.858;10.374;2023-08-06T06:00:54;18.70;99.90
22680;DHT22;11507;44.858;10.374;2023-08-06T06:03:19;19.00;99.90
22680;DHT22;11507;44.858;10.374;2023-08-06T06:05:45;19.10;99.90
22680;DHT22;11507;44.858;10.374;2023-08-06T06:08:11;19.30;99.90
22680;DHT22;11507;44.858;10.374;2023-08-06T06:10:37;19.40;99.90
22680;DHT22;11507;44.858;10.374;2023-08-06T06:13:02;19.60;99.90
22680;DHT22;11507;44.858;10.374;2023-08-06T06:15:29;19.80;99.90
22680;DHT22;11507;44.858;10.374;2023-08-06T06:17:55;19.90;99.90
22680;DHT22;11507;44.858;10.374;2023-08-06T06:20:21;20.10;99.90
22680;DHT22;11507;44.858;10.374;2023-08-06T06:22:48;20.20;99.90
22680;DHT22;11507;44.858;10.374;2023-08-06T06:25:13;20.40;99.90
22680;DHT22;11507;44.858;10.374;2023-08-06T06:27:39;20.60;99.90
22680;DHT22;11507;44.858;10.374;2023-08-06T06:30:05;20.70;99.90
22680;DHT22;11507;44.858;10.374;2023-08-06T06:32:31;20.90;99.90
22680;DHT22;11507;44.858;10.374;2023-08-06T06:34:58;21.00;99.90
22680;DHT22;11507;44.858;10.374;2023-08-06T06:37:24;21.10;99.90
22680;DHT22;11507;44.858;10.374;2023-08-06T06:39:50;21.30;99.90
22680;DHT22;11507;44.858;10.374;2023-08-06T06:42:16;21.30;99.90
22680;DHT22;11507;44.858;10.374;2023-08-06T06:44:45;21.40;99.90
22680;DHT22;11507;44.858;10.374;2023-08-06T06:47:11;21.50;99.90
22680;DHT22;11507;44.858;10.374;2023-08-06T06:49:37;21.60;99.90
22680;DHT22;11507;44.858;10.374;2023-08-06T06:52:03;21.70;99.90
22680;DHT22;11507;44.858;10.374;2023-08-06T06:54:29;21.70;99.90
22680;DHT22;11507;44.858;10.374;2023-08-06T06:56:55;21.80;99.90
22680;DHT22;11507;44.858;10.374;2023-08-06T06:59:20;21.80;99.90
22680;DHT22;11507;44.858;10.374;2023-08-06T07:01:46;21.90;99.90
22680;DHT22;11507;44.858;10.374;2023-08-06T07:04:12;22.00;99.90
22680;DHT22;11507;44.858;10.374;2023-08-06T07:06:38;22.30;99.90
22680;DHT22;11507;44.858;10.374;2023-08-06T07:09:04;22.40;99.90
22680;DHT22;11507;44.858;10.374;2023-08-06T07:11:29;22.60;99.90
22680;DHT22;11507;44.858;10.374;2023-08-06T07:13:58;22.90;99.90
22680;DHT22;11507;44.858;10.374;2023-08-06T07:16:25;23.20;99.90
22680;DHT22;11507;44.858;10.374;2023-08-06T07:18:52;23.20;99.90
22680;DHT22;11507;44.858;10.374;2023-08-06T07:21:19;23.30;99.90
22680;DHT22;11507;44.858;10.374;2023-08-06T07:23:45;23.60;99.90
22680;DHT22;11507;44.858;10.374;2023-08-06T07:26:12;23.80;99.90
22680;DHT22;11507;44.858;10.374;2023-08-06T07:28:38;24.10;99.90
22680;DHT22;11507;44.858;10.374;2023-08-06T07:31:03;24.30;99.90
22680;DHT22;11507;44.858;10.374;2023-08-06T07:33:29;24.60;99.90
22680;DHT22;11507;44.858;10.374;2023-08-06T07:35:55;24.70;99.90
22680;DHT22;11507;44.858;10.374;2023-08-06T07:38:21;24.80;99.90
22680;DHT22;11507;44.858;10.374;2023-08-06T07:40:47;25.00;99.90
22680;DHT22;11507;44.858;10.374;2023-08-06T07:43:13;25.10;99.90
22680;DHT22;11507;44.858;10.374;2023-08-06T07:45:38;25.20;99.90
22680;DHT22;11507;44.858;10.374;2023-08-06T07:48:04;25.10;99.90
22680;DHT22;11507;44.858;10.374;2023-08-06T07:50:31;25.20;99.90
22680;DHT22;11507;44.858;10.374;2023-08-06T07:52:57;25.30;99.90
22680;DHT22;11507;44.858;10.374;2023-08-06T07:55:23;25.50;99.90
22680;DHT22;11507;44.858;10.374;2023-08-06T07:57:49;25.50;99.90
22680;DHT22;11507;44.858;10.374;2023-08-06T08:00:15;25.70;99.90
22680;DHT22;11507;44.858;10.374;2023-08-06T08:02:41;25.90;99.90
22680;DHT22;11507;44.858;10.374;2023-08-06T08:05:07;25.90;99.90
22680;DHT22;11507;44.858;10.374;2023-08-06T08:07:33;26.00;99.90
22680;DHT22;11507;44.858;10.374;2023-08-06T08:09:59;26.00;98.90
22680;DHT22;11507;44.858;10.374;2023-08-06T08:12:25;26.00;97.70
22680;DHT22;11507;44.858;10.374;2023-08-06T08:14:51;26.00;99.90
22680;DHT22;11507;44.858;10.374;2023-08-06T08:17:17;26.10;99.80
22680;DHT22;11507;44.858;10.374;2023-08-06T08:19:43;26.30;99.50
22680;DHT22;11507;44.858;10.374;2023-08-06T08:22:09;26.50;98.80
22680;DHT22;11507;44.858;10.374;2023-08-06T08:24:35;26.70;99.90
22680;DHT22;11507;44.858;10.374;2023-08-06T08:27:00;26.90;99.70
22680;DHT22;11507;44.858;10.374;2023-08-06T08:29:26;27.00;97.40
22680;DHT22;11507;44.858;10.374;2023-08-06T08:31:52;27.00;95.70
22680;DHT22;11507;44.858;10.374;2023-08-06T08:34:18;27.10;94.60
22680;DHT22;11507;44.858;10.374;2023-08-06T08:36:44;27.10;96.30
22680;DHT22;11507;44.858;10.374;2023-08-06T08:39:13;27.10;96.00
22680;DHT22;11507;44.858;10.374;2023-08-06T08:41:39;27.20;94.70
22680;DHT22;11507;44.858;10.374;2023-08-06T08:44:08;27.10;93.20
22680;DHT22;11507;44.858;10.374;2023-08-06T08:46:40;27.10;98.30
22680;DHT22;11507;44.858;10.374;2023-08-06T08:49:07;27.30;98.00
22680;DHT22;11507;44.858;10.374;2023-08-06T08:51:33;27.60;97.00
22680;DHT22;11507;44.858;10.374;2023-08-06T08:54:04;27.80;93.40
22680;DHT22;11507;44.858;10.374;2023-08-06T08:56:33;28.00;95.80
22680;DHT22;11507;44.858;10.374;2023-08-06T08:58:59;28.20;96.00
22680;DHT22;11507;44.858;10.374;2023-08-06T09:01:25;28.30;93.20
22680;DHT22;11507;44.858;10.374;2023-08-06T09:03:52;28.30;92.60
22680;DHT22;11507;44.858;10.374;2023-08-06T09:06:20;28.30;91.60
22680;DHT22;11507;44.858;10.374;2023-08-06T09:09:00;28.40;90.80
22680;DHT22;11507;44.858;10.374;2023-08-06T09:11:27;28.20;90.00
22680;DHT22;11507;44.858;10.374;2023-08-06T09:13:53;28.30;90.00
22680;DHT22;11507;44.858;10.374;2023-08-06T09:16:19;28.30;91.10
22680;DHT22;11507;44.858;10.374;2023-08-06T09:18:45;28.40;89.70
22680;DHT22;11507;44.858;10.374;2023-08-06T09:21:15;28.50;89.20
22680;DHT22;11507;44.858;10.374;2023-08-06T09:23:41;28.40;87.50
22680;DHT22;11507;44.858;10.374;2023-08-06T09:26:11;28.40;90.00
22680;DHT22;11507;44.858;10.374;2023-08-06T09:28:39;28.30;88.70
22680;DHT22;11507;44.858;10.374;2023-08-06T09:31:07;28.40;86.30
22680;DHT22;11507;44.858;10.374;2023-08-06T09:33:33;28.60;88.30
22680;DHT22;11507;44.858;10.374;2023-08-06T09:36:12;28.80;85.00
22680;DHT22;11507;44.858;10.374;2023-08-06T09:38:39;28.90;83.70
22680;DHT22;11507;44.858;10.374;2023-08-06T09:41:06;29.00;85.00
22680;DHT22;11507;44.858;10.374;2023-08-06T09:43:42;29.20;82.90
22680;DHT22;11507;44.858;10.374;2023-08-06T09:46:14;29.40;83.20
22680;DHT22;11507;44.858;10.374;2023-08-06T09:48:45;29.50;76.10
22680;DHT22;11507;44.858;10.374;2023-08-06T09:51:13;29.40;66.70
22680;DHT22;11507;44.858;10.374;2023-08-06T09:53:40;29.40;63.50
22680;DHT22;11507;44.858;10.374;2023-08-06T09:56:06;29.30;59.40
22680;DHT22;11507;44.858;10.374;2023-08-06T09:58:33;29.40;58.70
22680;DHT22;11507;44.858;10.374;2023-08-06T10:01:00;29.40;59.10
22680;DHT22;11507;44.858;10.374;2023-08-06T10:03:28;29.50;60.20
22680;DHT22;11507;44.858;10.374;2023-08-06T10:05:55;29.70;59.60
22680;DHT22;11507;44.858;10.374;2023-08-06T10:08:22;29.90;58.60
22680;DHT22;11507;44.858;10.374;2023-08-06T10:10:48;29.90;58.10
22680;DHT22;11507;44.858;10.374;2023-08-06T10:13:14;30.10;59.40
22680;DHT22;11507;44.858;10.374;2023-08-06T10:15:42;30.20;56.60
22680;DHT22;11507;44.858;10.374;2023-08-06T10:18:08;30.20;53.90
22680;DHT22;11507;44.858;10.374;2023-08-06T10:20:34;30.20;53.20
22680;DHT22;11507;44.858;10.374;2023-08-06T10:23:05;30.20;51.70
22680;DHT22;11507;44.858;10.374;2023-08-06T10:25:32;30.30;52.20
22680;DHT22;11507;44.858;10.374;2023-08-06T10:27:59;30.30;50.70
22680;DHT22;11507;44.858;10.374;2023-08-06T10:30:32;30.30;49.60
22680;DHT22;11507;44.858;10.374;2023-08-06T10:33:03;30.30;48.40
22680;DHT22;11507;44.858;10.374;2023-08-06T10:38:16;30.60;53.70
22680;DHT22;11507;44.858;10.374;2023-08-06T10:43:33;30.80;48.00
22680;DHT22;11507;44.858;10.374;2023-08-06T10:46:05;30.80;48.10
22680;DHT22;11507;44.858;10.374;2023-08-06T10:48:41;30.70;49.00
22680;DHT22;11507;44.858;10.374;2023-08-06T10:51:11;30.80;50.30
22680;DHT22;11507;44.858;10.374;2023-08-06T10:53:42;30.80;49.40
22680;DHT22;11507;44.858;10.374;2023-08-06T10:56:24;31.00;49.90
22680;DHT22;11507;44.858;10.374;2023-08-06T10:58:53;31.00;47.00
22680;DHT22;11507;44.858;10.374;2023-08-06T11:01:19;31.10;46.50
22680;DHT22;11507;44.858;10.374;2023-08-06T11:03:46;31.00;46.50
22680;DHT22;11507;44.858;10.374;2023-08-06T11:06:17;31.10;47.80
22680;DHT22;11507;44.858;10.374;2023-08-06T11:08:53;31.30;47.70
22680;DHT22;11507;44.858;10.374;2023-08-06T11:11:22;31.50;47.10
22680;DHT22;11507;44.858;10.374;2023-08-06T11:13:50;31.50;47.80
22680;DHT22;11507;44.858;10.374;2023-08-06T11:16:18;31.40;47.40
22680;DHT22;11507;44.858;10.374;2023-08-06T11:18:44;31.40;44.70
22680;DHT22;11507;44.858;10.374;2023-08-06T11:21:10;31.50;45.30
22680;DHT22;11507;44.858;10.374;2023-08-06T11:23:40;31.60;46.00
22680;DHT22;11507;44.858;10.374;2023-08-06T11:26:05;31.80;45.40
22680;DHT22;11507;44.858;10.374;2023-08-06T11:28:31;31.80;43.20
22680;DHT22;11507;44.858;10.374;2023-08-06T11:30:58;31.80;44.30
22680;DHT22;11507;44.858;10.374;2023-08-06T11:33:27;31.80;44.80
22680;DHT22;11507;44.858;10.374;2023-08-06T11:35:57;31.90;40.60
22680;DHT22;11507;44.858;10.374;2023-08-06T11:38:28;31.80;42.20
22680;DHT22;11507;44.858;10.374;2023-08-06T11:40:54;31.90;42.50
22680;DHT22;11507;44.858;10.374;2023-08-06T11:43:20;31.90;40.00
22680;DHT22;11507;44.858;10.374;2023-08-06T11:45:51;32.10;39.00
22680;DHT22;11507;44.858;10.374;2023-08-06T11:48:19;32.20;38.50
22680;DHT22;11507;44.858;10.374;2023-08-06T11:50:45;32.40;39.20
22680;DHT22;11507;44.858;10.374;2023-08-06T11:53:14;32.50;41.50
22680;DHT22;11507;44.858;10.374;2023-08-06T11:55:41;32.60;41.90
22680;DHT22;11507;44.858;10.374;2023-08-06T11:58:07;32.80;41.30
22680;DHT22;11507;44.858;10.374;2023-08-06T12:00:33;32.60;40.90
22680;DHT22;11507;44.858;10.374;2023-08-06T12:02:58;32.70;40.00
22680;DHT22;11507;44.858;10.374;2023-08-06T12:05:33;32.70;41.00
22680;DHT22;11507;44.858;10.374;2023-08-06T12:08:01;32.80;39.70
22680;DHT22;11507;44.858;10.374;2023-08-06T12:10:29;32.90;40.10
22680;DHT22;11507;44.858;10.374;2023-08-06T12:12:55;32.90;40.40
22680;DHT22;11507;44.858;10.374;2023-08-06T12:15:21;33.10;39.90
22680;DHT22;11507;44.858;10.374;2023-08-06T12:17:47;33.10;38.70
22680;DHT22;11507;44.858;10.374;2023-08-06T12:20:13;33.00;40.20
22680;DHT22;11507;44.858;10.374;2023-08-06T12:22:39;33.20;41.10
22680;DHT22;11507;44.858;10.374;2023-08-06T12:25:11;33.40;38.90
22680;DHT22;11507;44.858;10.374;2023-08-06T12:27:41;33.30;38.10
22680;DHT22;11507;44.858;10.374;2023-08-06T12:30:08;33.20;36.20
22680;DHT22;11507;44.858;10.374;2023-08-06T12:32:34;33.20;37.10
22680;DHT22;11507;44.858;10.374;2023-08-06T12:35:01;33.30;37.80
22680;DHT22;11507;44.858;10.374;2023-08-06T12:37:27;33.40;38.20
22680;DHT22;11507;44.858;10.374;2023-08-06T12:39:53;33.70;39.00
22680;DHT22;11507;44.858;10.374;2023-08-06T12:42:19;33.60;37.00
22680;DHT22;11507;44.858;10.374;2023-08-06T12:44:44;33.50;36.60
22680;DHT22;11507;44.858;10.374;2023-08-06T12:47:10;33.30;37.40
22680;DHT22;11507;44.858;10.374;2023-08-06T12:49:36;33.50;39.00
22680;DHT22;11507;44.858;10.374;2023-08-06T12:52:02;34.00;35.50
22680;DHT22;11507;44.858;10.374;2023-08-06T12:54:30;34.10;34.50
22680;DHT22;11507;44.858;10.374;2023-08-06T12:57:02;34.30;35.30
22680;DHT22;11507;44.858;10.374;2023-08-06T12:59:28;34.60;34.80
22680;DHT22;11507;44.858;10.374;2023-08-06T13:01:54;34.50;34.20
22680;DHT22;11507;44.858;10.374;2023-08-06T13:04:19;34.60;35.90
22680;DHT22;11507;44.858;10.374;2023-08-06T13:06:45;34.50;35.60
22680;DHT22;11507;44.858;10.374;2023-08-06T13:09:12;34.10;34.10
22680;DHT22;11507;44.858;10.374;2023-08-06T13:11:42;33.70;34.50
22680;DHT22;11507;44.858;10.374;2023-08-06T13:14:09;33.80;35.00
22680;DHT22;11507;44.858;10.374;2023-08-06T13:16:36;33.90;35.40
22680;DHT22;11507;44.858;10.374;2023-08-06T13:19:02;33.90;35.30
22680;DHT22;11507;44.858;10.374;2023-08-06T13:22:02;34.20;35.70
22680;DHT22;11507;44.858;10.374;2023-08-06T13:24:29;34.30;34.20
22680;DHT22;11507;44.858;10.374;2023-08-06T13:26:55;34.60;34.50
22680;DHT22;11507;44.858;10.374;2023-08-06T13:29:21;34.70;34.40
22680;DHT22;11507;44.858;10.374;2023-08-06T13:31:46;34.40;33.40
22680;DHT22;11507;44.858;10.374;2023-08-06T13:34:12;34.40;31.80
22680;DHT22;11507;44.858;10.374;2023-08-06T13:36:38;34.50;31.80
22680;DHT22;11507;44.858;10.374;2023-08-06T13:39:04;34.70;31.10
22680;DHT22;11507;44.858;10.374;2023-08-06T13:41:31;34.80;32.80
22680;DHT22;11507;44.858;10.374;2023-08-06T13:43:57;34.60;31.90
22680;DHT22;11507;44.858;10.374;2023-08-06T13:46:22;34.60;29.60
22680;DHT22;11507;44.858;10.374;2023-08-06T13:48:48;34.50;29.90
22680;DHT22;11507;44.858;10.374;2023-08-06T13:51:18;34.50;30.00
22680;DHT22;11507;44.858;10.374;2023-08-06T13:53:45;34.40;30.40
22680;DHT22;11507;44.858;10.374;2023-08-06T13:56:11;34.20;30.30
22680;DHT22;11507;44.858;10.374;2023-08-06T13:58:38;34.20;31.70
22680;DHT22;11507;44.858;10.374;2023-08-06T14:01:04;34.20;30.90
22680;DHT22;11507;44.858;10.374;2023-08-06T14:03:29;34.30;30.50
22680;DHT22;11507;44.858;10.374;2023-08-06T14:05:55;34.00;30.10
22680;DHT22;11507;44.858;10.374;2023-08-06T14:08:25;33.60;30.00
22680;DHT22;11507;44.858;10.374;2023-08-06T14:10:52;33.70;30.20
22680;DHT22;11507;44.858;10.374;2023-08-06T14:13:18;33.50;30.00
22680;DHT22;11507;44.858;10.374;2023-08-06T14:15:44;33.60;30.90
22680;DHT22;11507;44.858;10.374;2023-08-06T14:18:13;33.90;30.10
22680;DHT22;11507;44.858;10.374;2023-08-06T14:20:39;34.10;29.40
22680;DHT22;11507;44.858;10.374;2023-08-06T14:23:06;34.20;29.50
22680;DHT22;11507;44.858;10.374;2023-08-06T14:25:31;34.40;28.70
22680;DHT22;11507;44.858;10.374;2023-08-06T14:27:57;34.50;29.10
22680;DHT22;11507;44.858;10.374;2023-08-06T14:30:23;34.50;29.20
22680;DHT22;11507;44.858;10.374;2023-08-06T14:32:49;34.60;27.80
22680;DHT22;11507;44.858;10.374;2023-08-06T14:35:15;34.60;28.10
22680;DHT22;11507;44.858;10.374;2023-08-06T14:37:40;34.70;29.00
22680;DHT22;11507;44.858;10.374;2023-08-06T14:40:07;34.60;28.40
22680;DHT22;11507;44.858;10.374;2023-08-06T14:42:33;34.60;29.30
22680;DHT22;11507;44.858;10.374;2023-08-06T14:44:59;34.80;29.50
22680;DHT22;11507;44.858;10.374;2023-08-06T14:47:25;34.80;28.40
22680;DHT22;11507;44.858;10.374;2023-08-06T14:49:51;34.70;28.90
22680;DHT22;11507;44.858;10.374;2023-08-06T14:52:16;34.50;28.90
22680;DHT22;11507;44.858;10.374;2023-08-06T14:54:42;34.30;28.90
22680;DHT22;11507;44.858;10.374;2023-08-06T14:57:09;34.40;28.60
22680;DHT22;11507;44.858;10.374;2023-08-06T14:59:35;34.30;28.10
22680;DHT22;11507;44.858;10.374;2023-08-06T15:02:01;34.40;28.10
22680;DHT22;11507;44.858;10.374;2023-08-06T15:04:27;34.60;29.40
22680;DHT22;11507;44.858;10.374;2023-08-06T15:06:54;34.90;29.30
22680;DHT22;11507;44.858;10.374;2023-08-06T15:09:20;34.70;29.50
22680;DHT22;11507;44.858;10.374;2023-08-06T15:11:47;34.70;28.40
22680;DHT22;11507;44.858;10.374;2023-08-06T15:14:13;34.50;28.70
22680;DHT22;11507;44.858;10.374;2023-08-06T15:16:40;34.40;28.30
22680;DHT22;11507;44.858;10.374;2023-08-06T15:19:06;34.30;28.80
22680;DHT22;11507;44.858;10.374;2023-08-06T15:21:32;34.20;29.20
22680;DHT22;11507;44.858;10.374;2023-08-06T15:23:58;34.40;28.90
22680;DHT22;11507;44.858;10.374;2023-08-06T15:26:24;34.40;28.90